sensor_id;sensor_type;location;lat;lon;timestamp;temperature;humidity
43541;DHT22;29549;40.386;-3.710;2023-05-07T00:01:45;21.80;35.00
43541;DHT22;29549;40.386;-3.710;2023-05-07T00:11:45;21.70;34.30
43541;DHT22;29549;40.386;-3.710;2023-05-07T00:21:46;21.60;34.50
43541;DHT22;29549;40.386;-3.710;2023-05-07T00:31:48;21.40;35.90
43541;DHT22;29549;40.386;-3.710;2023-05-07T00:41:49;21.20;36.20
43541;DHT22;29549;40.386;-3.710;2023-05-07T00:51:51;21.30;36.30
43541;DHT22;29549;40.386;-3.710;2023-05-07T01:01:52;21.30;36.10
43541;DHT22;29549;40.386;-3.710;2023-05-07T01:11:52;21.30;36.10
43541;DHT22;29549;40.386;-3.710;2023-05-07T01:21:53;21.20;36.40
43541;DHT22;29549;40.386;-3.710;2023-05-07T01:31:58;21.20;36.80
43541;DHT22;29549;40.386;-3.710;2023-05-07T01:41:59;21.20;37.20
43541;DHT22;29549;40.386;-3.710;2023-05-07T01:52:00;21.00;37.60
43541;DHT22;29549;40.386;-3.710;2023-05-07T02:02:01;20.90;37.80
43541;DHT22;29549;40.386;-3.710;2023-05-07T02:12:01;21.00;37.80
43541;DHT22;29549;40.386;-3.710;2023-05-07T02:22:02;20.80;37.90
43541;DHT22;29549;40.386;-3.710;2023-05-07T02:32:03;20.70;37.90
43541;DHT22;29549;40.386;-3.710;2023-05-07T02:42:03;20.70;38.70
43541;DHT22;29549;40.386;-3.710;2023-05-07T02:52:04;20.60;39.20
43541;DHT22;29549;40.386;-3.710;2023-05-07T03:02:05;20.60;39.50
43541;DHT22;29549;40.386;-3.710;2023-05-07T03:12:05;20.50;39.70
43541;DHT22;29549;40.386;-3.710;2023-05-07T03:22:06;20.50;40.30
43541;DHT22;29549;40.386;-3.710;2023-05-07T03:32:07;20.40;41.00
43541;DHT22;29549;40.386;-3.710;2023-05-07T03:42:07;20.30;42.10
43541;DHT22;29549;40.386;-3.710;2023-05-07T03:52:08;20.20;42.80
43541;DHT22;29549;40.386;-3.710;2023-05-07T04:02:08;20.10;43.40
43541;DHT22;29549;40.386;-3.710;2023-05-07T04:12:09;19.90;44.80
43541;DHT22;29549;40.386;-3.710;2023-05-07T04:22:10;19.80;46.00
43541;DHT22;29549;40.386;-3.710;2023-05-07T04:32:11;19.70;46.50
43541;DHT22;29549;40.386;-3.710;2023-05-07T04:42:14;19.60;47.10
43541;DHT22;29549;40.386;-3.710;2023-05-07T04:52:15;19.50;47.80
43541;DHT22;29549;40.386;-3.710;2023-05-07T05:02:17;19.30;48.10
43541;DHT22;29549;40.386;-3.710;2023-05-07T05:12:17;19.20;48.20
43541;DHT22;29549;40.386;-3.710;2023-05-07T05:22:18;19.20;48.20
43541;DHT22;29549;40.386;-3.710;2023-05-07T05:32:18;19.20;48.50
43541;DHT22;29549;40.386;-3.710;2023-05-07T05:42:19;19.10;48.60
43541;DHT22;29549;40.386;-3.710;2023-05-07T05:52:20;19.10;48.80
43541;DHT22;29549;40.386;-3.710;2023-05-07T06:02:24;19.10;49.00
43541;DHT22;29549;40.386;-3.710;2023-05-07T06:12:24;18.90;49.00
43541;DHT22;29549;40.386;-3.710;2023-05-07T06:22:25;18.80;48.80
43541;DHT22;29549;40.386;-3.710;2023-05-07T06:32:25;18.70;48.80
43541;DHT22;29549;40.386;-3.710;2023-05-07T06:42:26;19.10;48.10
43541;DHT22;29549;40.386;-3.710;2023-05-07T06:52:27;19.70;46.80
43541;DHT22;29549;40.386;-3.710;2023-05-07T07:02:27;20.40;45.00
43541;DHT22;29549;40.386;-3.710;2023-05-07T07:12:28;20.80;44.30
43541;DHT22;29549;40.386;-3.710;2023-05-07T07:22:30;21.20;43.80
43541;DHT22;29549;40.386;-3.710;2023-05-07T07:32:30;21.70;43.20
43541;DHT22;29549;40.386;-3.710;2023-05-07T07:42:32;22.10;42.40
43541;DHT22;29549;40.386;-3.710;2023-05-07T07:52:33;22.20;41.70
43541;DHT22;29549;40.386;-3.710;2023-05-07T08:02:34;22.40;41.40
43541;DHT22;29549;40.386;-3.710;2023-05-07T08:12:35;22.70;40.00
43541;DHT22;29549;40.386;-3.710;2023-05-07T08:22:36;22.90;39.50
43541;DHT22;29549;40.386;-3.710;2023-05-07T08:32:36;23.20;38.50
43541;DHT22;29549;40.386;-3.710;2023-05-07T08:42:37;23.40;38.00
43541;DHT22;29549;40.386;-3.710;2023-05-07T08:52:39;23.60;37.60
43541;DHT22;29549;40.386;-3.710;2023-05-07T09:02:39;23.70;37.10
43541;DHT22;29549;40.386;-3.710;2023-05-07T09:12:40;24.00;36.80
43541;DHT22;29549;40.386;-3.710;2023-05-07T09:22:41;24.10;36.00
43541;DHT22;29549;40.386;-3.710;2023-05-07T09:32:41;24.20;35.90
43541;DHT22;29549;40.386;-3.710;2023-05-07T09:42:42;24.20;35.50
43541;DHT22;29549;40.386;-3.710;2023-05-07T09:52:43;24.20;35.30
43541;DHT22;29549;40.386;-3.710;2023-05-07T10:02:44;24.30;34.80
43541;DHT22;29549;40.386;-3.710;2023-05-07T10:12:48;24.40;35.10
43541;DHT22;29549;40.386;-3.710;2023-05-07T10:22:50;24.60;34.20
43541;DHT22;29549;40.386;-3.710;2023-05-07T10:32:53;24.60;33.90
43541;DHT22;29549;40.386;-3.710;2023-05-07T10:43:02;24.70;33.70
43541;DHT22;29549;40.386;-3.710;2023-05-07T11:03:18;25.20;33.30
43541;DHT22;29549;40.386;-3.710;2023-05-07T11:13:19;25.50;32.50
43541;DHT22;29549;40.386;-3.710;2023-05-07T11:33:40;25.80;31.00
43541;DHT22;29549;40.386;-3.710;2023-05-07T11:43:59;26.10;30.40
43541;DHT22;29549;40.386;-3.710;2023-05-07T11:53:59;26.10;30.30
43541;DHT22;29549;40.386;-3.710;2023-05-07T12:04:00;25.90;30.60
43541;DHT22;29549;40.386;-3.710;2023-05-07T12:14:03;25.80;30.10
43541;DHT22;29549;40.386;-3.710;2023-05-07T12:24:04;26.30;29.20
43541;DHT22;29549;40.386;-3.710;2023-05-07T12:34:04;26.50;29.10
43541;DHT22;29549;40.386;-3.710;2023-05-07T12:44:05;26.50;29.40
43541;DHT22;29549;40.386;-3.710;2023-05-07T12:54:06;26.70;28.80
43541;DHT22;29549;40.386;-3.710;2023-05-07T13:04:06;26.80;28.50
43541;DHT22;29549;40.386;-3.710;2023-05-07T13:14:07;26.70;28.50
43541;DHT22;29549;40.386;-3.710;2023-05-07T13:24:08;26.60;28.40
43541;DHT22;29549;40.386;-3.710;2023-05-07T13:34:09;27.10;28.30
43541;DHT22;29549;40.386;-3.710;2023-05-07T13:44:10;27.30;28.10
43541;DHT22;29549;40.386;-3.710;2023-05-07T13:54:10;27.50;27.50
43541;DHT22;29549;40.386;-3.710;2023-05-07T14:04:12;27.90;26.70
43541;DHT22;29549;40.386;-3.710;2023-05-07T14:14:12;27.60;27.10
43541;DHT22;29549;40.386;-3.710;2023-05-07T14:24:13;27.60;27.20
43541;DHT22;29549;40.386;-3.710;2023-05-07T14:34:13;27.30;27.30
43541;DHT22;29549;40.386;-3.710;2023-05-07T14:44:14;27.20;27.60
43541;DHT22;29549;40.386;-3.710;2023-05-07T14:54:15;27.00;28.00
43541;DHT22;29549;40.386;-3.710;2023-05-07T15:04:15;27.00;27.70
43541;DHT22;29549;40.386;-3.710;2023-05-07T15:14:16;27.20;27.60
43541;DHT22;29549;40.386;-3.710;2023-05-07T15:24:17;27.20;27.50
43541;DHT22;29549;40.386;-3.710;2023-05-07T15:34:17;27.40;27.10
43541;DHT22;29549;40.386;-3.710;2023-05-07T15:44:18;27.20;27.80
43541;DHT22;29549;40.386;-3.710;2023-05-07T15:54:18;27.10;27.70
43541;DHT22;29549;40.386;-3.710;2023-05-07T16:04:20;27.60;26.80
43541;DHT22;29549;40.386;-3.710;2023-05-07T16:14:21;27.40;26.80
43541;DHT22;29549;40.386;-3.710;2023-05-07T16:24:22;27.50;25.90
43541;DHT22;29549;40.386;-3.710;2023-05-07T16:34:22;27.70;25.80
43541;DHT22;29549;40.386;-3.710;2023-05-07T16:44:23;27.80;25.50
43541;DHT22;29549;40.386;-3.710;2023-05-07T16:54:24;27.70;25.30
43541;DHT22;29549;40.386;-3.710;2023-05-07T17:04:24;27.60;25.50
43541;DHT22;29549;40.386;-3.710;2023-05-07T17:14:25;27.60;25.30
43541;DHT22;29549;40.386;-3.710;2023-05-07T17:24:26;27.60;25.00
43541;DHT22;29549;40.386;-3.710;2023-05-07T17:34:26;27.60;25.30
43541;DHT22;29549;40.386;-3.710;2023-05-07T17:44:27;27.40;25.70
43541;DHT22;29549;40.386;-3.710;2023-05-07T17:54:30;27.10;26.50
43541;DHT22;29549;40.386;-3.710;2023-05-07T18:04:31;27.00;26.50
43541;DHT22;29549;40.386;-3.710;2023-05-07T18:14:32;26.70;26.80
43541;DHT22;29549;40.386;-3.710;2023-05-07T18:24:32;26.50;26.80
43541;DHT22;29549;40.386;-3.710;2023-05-07T18:34:33;26.40;26.60
43541;DHT22;29549;40.386;-3.710;2023-05-07T18:44:34;26.10;26.20
43541;DHT22;29549;40.386;-3.710;2023-05-07T18:54:37;25.90;26.40
43541;DHT22;29549;40.386;-3.710;2023-05-07T19:04:38;25.60;26.90
43541;DHT22;29549;40.386;-3.710;2023-05-07T19:14:39;25.40;27.20
43541;DHT22;29549;40.386;-3.710;2023-05-07T19:24:42;25.30;27.00
43541;DHT22;29549;40.386;-3.710;2023-05-07T19:34:42;25.10;27.00
43541;DHT22;29549;40.386;-3.710;2023-05-07T19:44:43;24.90;27.40
43541;DHT22;29549;40.386;-3.710;2023-05-07T19:54:44;24.70;27.90
43541;DHT22;29549;40.386;-3.710;2023-05-07T20:04:44;24.50;28.40
43541;DHT22;29549;40.386;-3.710;2023-05-07T20:14:45;24.40;28.90
43541;DHT22;29549;40.386;-3.710;2023-05-07T20:24:45;24.60;29.20
43541;DHT22;29549;40.386;-3.710;2023-05-07T20:34:46;24.40;29.30
43541;DHT22;29549;40.386;-3.710;2023-05-07T20:44:47;24.40;29.20
43541;DHT22;29549;40.386;-3.710;2023-05-07T20:54:47;24.10;29.50
43541;DHT22;29549;40.386;-3.710;2023-05-07T21:04:49;24.00;29.40
43541;DHT22;29549;40.386;-3.710;2023-05-07T21:14:51;23.90;29.60
43541;DHT22;29549;40.386;-3.710;2023-05-07T21:24:52;23.80;30.00
43541;DHT22;29549;40.386;-3.710;2023-05-07T21:34:52;23.60;30.50
43541;DHT22;29549;40.386;-3.710;2023-05-07T21:44:53;23.50;31.40
43541;DHT22;29549;40.386;-3.710;2023-05-07T21:54:54;23.30;32.10
43541;DHT22;29549;40.386;-3.710;2023-05-07T22:04:54;23.20;32.20
43541;DHT22;29549;40.386;-3.710;2023-05-07T22:14:55;22.90;32.80
43541;DHT22;29549;40.386;-3.710;2023-05-07T22:24:55;22.70;33.00
43541;DHT22;29549;40.386;-3.710;2023-05-07T22:34:56;22.60;33.30
43541;DHT22;29549;40.386;-3.710;2023-05-07T22:44:56;22.50;33.10
43541;DHT22;29549;40.386;-3.710;2023-05-07T22:54:57;22.40;33.10
43541;DHT22;29549;40.386;-3.710;2023-05-07T23:04:58;22.20;32.90
43541;DHT22;29549;40.386;-3.710;2023-05-07T23:14:59;22.10;33.10
43541;DHT22;29549;40.386;-3.710;2023-05-07T23:25:00;22.00;33.90
43541;DHT22;29549;40.386;-3.710;2023-05-07T23:35:01;21.90;35.40
43541;DHT22;29549;40.386;-3.710;2023-05-07T23:45:01;21.80;36.50
43541;DHT22;29549;40.386;-3.710;2023-05-07T23:55:02;21.70;37.50
